ZKNCU NZWN-NZWN
Flight info
| Callsign | ZKNCU |
|---|---|
| Flight time | 0h 4m |
| Altitude | 1500 |
| Route | VFR |
| Aircraft | C152/L-U/V |
Departure
| Time | 2026-04-29 09:57 |
|---|---|
| Airport | Wellington International Airport (NZWN) |
Arrival
| Time | 2026-04-29 10:02 |
|---|---|
| Airport | Wellington International Airport (NZWN) |
| Time | Latitude | Longitude | Altitude | Speed | Heading |
|---|---|---|---|---|---|
| 2026-04-29 09:52 | -41.32466 | 174.80440 | 34 ft | 0 kts | 182° |
| 2026-04-29 09:54 | -41.32473 | 174.80440 | 33 ft | 4 kts | 178° |
| 2026-04-29 09:54 | -41.32507 | 174.80479 | 33 ft | 8 kts | 94° |
| 2026-04-29 09:55 | -41.32524 | 174.80568 | 33 ft | 11 kts | 163° |
| 2026-04-29 09:55 | -41.32600 | 174.80566 | 29 ft | 13 kts | 181° |
| 2026-04-29 09:55 | -41.32676 | 174.80569 | 25 ft | 7 kts | 114° |
| 2026-04-29 09:55 | -41.32682 | 174.80646 | 23 ft | 7 kts | 95° |
| 2026-04-29 09:56 | -41.32676 | 174.80690 | 23 ft | 3 kts | 28° |
| 2026-04-29 09:56 | -41.32476 | 174.80704 | 39 ft | 57 kts | 355° |
| 2026-04-29 09:56 | -41.32020 | 174.80716 | 230 ft | 70 kts | 0° |
| 2026-04-29 09:56 | -41.31523 | 174.80739 | 442 ft | 79 kts | 1° |
| 2026-04-29 09:57 | -41.30960 | 174.80888 | 592 ft | 89 kts | 14° |
| 2026-04-29 09:57 | -41.30369 | 174.81311 | 669 ft | 100 kts | 21° |
| 2026-04-29 09:57 | -41.29736 | 174.81720 | 785 ft | 104 kts | 18° |
| 2026-04-29 09:57 | -41.29276 | 174.82364 | 991 ft | 107 kts | 72° |
| 2026-04-29 09:58 | -41.29210 | 174.83365 | 1082 ft | 114 kts | 83° |
| 2026-04-29 09:58 | -41.29580 | 174.84283 | 1124 ft | 120 kts | 150° |
| 2026-04-29 09:58 | -41.30387 | 174.84532 | 1169 ft | 113 kts | 178° |
| 2026-04-29 09:58 | -41.31187 | 174.84534 | 1141 ft | 118 kts | 192° |
| 2026-04-29 09:59 | -41.31983 | 174.84300 | 1081 ft | 115 kts | 199° |
| 2026-04-29 09:59 | -41.32722 | 174.84062 | 1014 ft | 105 kts | 200° |
| 2026-04-29 09:59 | -41.33417 | 174.83884 | 982 ft | 102 kts | 196° |
| 2026-04-29 09:59 | -41.34111 | 174.83673 | 869 ft | 102 kts | 199° |
| 2026-04-29 10:00 | -41.34784 | 174.83450 | 789 ft | 98 kts | 206° |
| 2026-04-29 10:00 | -41.35232 | 174.82884 | 693 ft | 87 kts | 245° |
| 2026-04-29 10:00 | -41.35380 | 174.82172 | 673 ft | 76 kts | 274° |
| 2026-04-29 10:00 | -41.35309 | 174.81451 | 561 ft | 79 kts | 290° |
| 2026-04-29 10:01 | -41.34947 | 174.80955 | 508 ft | 65 kts | 325° |
| 2026-04-29 10:01 | -41.34591 | 174.80666 | 335 ft | 58 kts | 333° |
| 2026-04-29 10:01 | -41.34208 | 174.80600 | 217 ft | 52 kts | 358° |
| 2026-04-29 10:01 | -41.33856 | 174.80612 | 139 ft | 50 kts | 358° |
| 2026-04-29 10:02 | -41.33506 | 174.80633 | 69 ft | 49 kts | 2° |
| 2026-04-29 10:02 | -41.33190 | 174.80656 | 28 ft | 40 kts | 359° |
| 2026-04-29 10:02 | -41.32942 | 174.80667 | 25 ft | 40 kts | 356° |
| 2026-04-29 10:02 | -41.32607 | 174.80688 | 162 ft | 56 kts | 354° |
| 2026-04-29 10:03 | -41.32154 | 174.80730 | 295 ft | 71 kts | 356° |
| 2026-04-29 10:03 | -41.31658 | 174.80748 | 503 ft | 74 kts | 351° |
| 2026-04-29 10:03 | -41.31114 | 174.80832 | 652 ft | 81 kts | 358° |
| 2026-04-29 10:03 | -41.30556 | 174.80797 | 802 ft | 81 kts | 346° |
| 2026-04-29 10:04 | -41.30005 | 174.80692 | 979 ft | 79 kts | 342° |
| 2026-04-29 10:04 | -41.29466 | 174.80547 | 1143 ft | 81 kts | 338° |
| 2026-04-29 10:04 | -41.28954 | 174.80237 | 1224 ft | 80 kts | 306° |
| 2026-04-29 10:04 | -41.28844 | 174.79596 | 1358 ft | 82 kts | 252° |
| 2026-04-29 10:05 | -41.29009 | 174.78911 | 1529 ft | 77 kts | 252° |
| 2026-04-29 10:05 | -41.29166 | 174.78239 | 1645 ft | 78 kts | 257° |
| 2026-04-29 10:05 | -41.29224 | 174.77560 | 1832 ft | 68 kts | 268° |
| 2026-04-29 10:05 | -41.29266 | 174.76955 | 1973 ft | 69 kts | 264° |
| 2026-04-29 10:06 | -41.29084 | 174.76298 | 1809 ft | 89 kts | 308° |
| 2026-04-29 10:06 | -41.28699 | 174.75711 | 1903 ft | 79 kts | 298° |
| 2026-04-29 10:06 | -41.28403 | 174.75142 | 2109 ft | 66 kts | 288° |
| 2026-04-29 10:06 | -41.28347 | 174.74530 | 2242 ft | 66 kts | 269° |
| 2026-04-29 10:07 | -41.28421 | 174.73944 | 2365 ft | 71 kts | 253° |
| 2026-04-29 10:07 | -41.28616 | 174.73283 | 2390 ft | 79 kts | 248° |
| 2026-04-29 10:07 | -41.28847 | 174.72636 | 2545 ft | 74 kts | 237° |
| 2026-04-29 10:07 | -41.29292 | 174.72290 | 2667 ft | 91 kts | 178° |
| 2026-04-29 10:08 | -41.29908 | 174.72728 | 2727 ft | 105 kts | 156° |
| 2026-04-29 10:08 | -41.30535 | 174.73303 | 2687 ft | 116 kts | 149° |
| 2026-04-29 10:08 | -41.31176 | 174.73927 | 2702 ft | 115 kts | 150° |
| 2026-04-29 10:08 | -41.31792 | 174.74580 | 2706 ft | 117 kts | 148° |
| 2026-04-29 10:09 | -41.32442 | 174.75244 | 2690 ft | 118 kts | 150° |
| 2026-04-29 10:09 | -41.33110 | 174.75978 | 2483 ft | 130 kts | 143° |
| 2026-04-29 10:09 | -41.33778 | 174.76788 | 2252 ft | 126 kts | 143° |
| 2026-04-29 10:09 | -41.34412 | 174.77492 | 1964 ft | 113 kts | 151° |
| 2026-04-29 10:10 | -41.35027 | 174.78003 | 1741 ft | 98 kts | 158° |
| 2026-04-29 10:10 | -41.35575 | 174.78481 | 1589 ft | 89 kts | 155° |
| 2026-04-29 10:10 | -41.35877 | 174.79164 | 1430 ft | 83 kts | 103° |
| 2026-04-29 10:10 | -41.35761 | 174.79877 | 1293 ft | 77 kts | 59° |
| 2026-04-29 10:11 | -41.35370 | 174.80327 | 998 ft | 84 kts | 17° |
| 2026-04-29 10:11 | -41.34841 | 174.80515 | 664 ft | 80 kts | 358° |
| 2026-04-29 10:11 | -41.34294 | 174.80580 | 304 ft | 73 kts | 359° |
| 2026-04-29 10:11 | -41.33837 | 174.80612 | 116 ft | 57 kts | 358° |
| 2026-04-29 10:12 | -41.33485 | 174.80633 | 49 ft | 41 kts | 4° |
| 2026-04-29 10:12 | -41.33227 | 174.80652 | 25 ft | 32 kts | 4° |
| 2026-04-29 10:12 | -41.33005 | 174.80669 | 14 ft | 32 kts | 1° |
| 2026-04-29 10:12 | -41.32822 | 174.80681 | 14 ft | 18 kts | 1° |
| 2026-04-29 10:13 | -41.32744 | 174.80690 | 19 ft | 4 kts | 2° |
| 2026-04-29 10:13 | -41.32703 | 174.80687 | 22 ft | 8 kts | 338° |
| 2026-04-29 10:13 | -41.32681 | 174.80647 | 23 ft | 3 kts | 274° |
| 2026-04-29 10:13 | -41.32679 | 174.80605 | 24 ft | 4 kts | 272° |
| 2026-04-29 10:14 | -41.32677 | 174.80565 | 25 ft | 4 kts | 274° |
| 2026-04-29 10:14 | -41.32675 | 174.80521 | 26 ft | 5 kts | 275° |
| 2026-04-29 10:14 | -41.32689 | 174.80487 | 27 ft | 5 kts | 185° |
| 2026-04-29 10:14 | -41.32696 | 174.80478 | 27 ft | 0 kts | 252° |
| 2026-04-29 10:15 | -41.32703 | 174.80478 | 27 ft | 0 kts | 122° |
| 2026-04-29 10:15 | -41.32703 | 174.80481 | 27 ft | 0 kts | 71° |